Time;durP1;ratioP1;P1;durP2;ratioP2;P2;SDS_P1;SDS_P2;PMS_P1;PMS_P2;Temp;Humidity;BMP_temperature;BMP_pressure;BME280_temperature;BME280_humidity;BME280_pressure;Samples;Min_cycle;Max_cycle;Signal;HPM_P1;HPM_P2
2021/10/18 00:00:22;;;;;;;29.88;20.50;;;11.00;92.50;;;;;;4957411;29;20047;-76
2021/10/18 00:02:50;;;;;;;27.10;19.90;;;11.00;92.50;;;;;;4940855;29;20051;-76
2021/10/18 00:09:51;;;;;;;24.98;19.63;;;10.90;92.60;;;;;;4957120;28;20031;-76
2021/10/18 00:12:19;;;;;;;29.35;19.15;;;10.90;92.50;;;;;;4953092;29;20039;-76
2021/10/18 00:14:46;;;;;;;30.15;19.60;;;10.90;92.50;;;;;;4973676;28;20063;-76
2021/10/18 00:17:14;;;;;;;24.02;18.83;;;10.90;92.60;;;;;;4959504;29;20066;-76
2021/10/18 00:19:41;;;;;;;24.73;19.23;;;11.00;92.70;;;;;;4957368;29;20063;-76
2021/10/18 00:22:09;;;;;;;29.13;18.55;;;11.00;92.80;;;;;;4956549;28;20051;-76
2021/10/18 00:24:37;;;;;;;26.50;19.00;;;11.00;92.80;;;;;;4957043;29;20055;-76
2021/10/18 00:27:04;;;;;;;25.95;18.77;;;11.10;92.70;;;;;;4956408;29;20062;-77
2021/10/18 00:29:32;;;;;;;23.92;18.40;;;11.20;92.60;;;;;;4956460;29;20039;-76
2021/10/18 00:31:59;;;;;;;23.98;18.77;;;11.20;92.60;;;;;;4957495;29;20047;-76
2021/10/18 00:34:27;;;;;;;27.27;19.30;;;11.20;92.50;;;;;;4956679;29;20051;-76
2021/10/18 00:36:55;;;;;;;27.92;19.50;;;11.20;92.60;;;;;;4956717;29;20059;-76
2021/10/18 00:39:22;;;;;;;24.42;19.65;;;11.20;92.60;;;;;;4956853;28;20060;-76
2021/10/18 00:41:50;;;;;;;26.27;19.55;;;11.10;92.60;;;;;;4957032;29;20058;-77
2021/10/18 00:44:18;;;;;;;27.67;20.05;;;11.10;92.60;;;;;;4956774;29;20171;-77
2021/10/18 00:46:45;;;;;;;28.98;21.42;;;11.10;92.60;;;;;;4956695;29;20047;-77
2021/10/18 00:49:13;;;;;;;30.73;22.90;;;11.10;92.70;;;;;;4956549;29;20047;-77
2021/10/18 00:51:40;;;;;;;31.48;22.23;;;11.00;92.80;;;;;;4956926;29;20051;-76
2021/10/18 00:54:09;;;;;;;37.53;24.48;;;11.00;92.80;;;;;;4956190;28;20524;-76
2021/10/18 00:56:36;;;;;;;31.88;24.30;;;11.00;92.80;;;;;;4956452;29;20047;-76
2021/10/18 00:59:05;;;;;;;37.47;25.55;;;11.00;92.90;;;;;;4956394;29;20043;-76
2021/10/18 01:01:33;;;;;;;35.70;25.50;;;11.00;93.00;;;;;;4956136;29;20507;-76
2021/10/18 01:08:31;;;;;;;39.78;27.30;;;10.90;93.10;;;;;;4956674;29;20051;-77
2021/10/18 01:10:59;;;;;;;41.13;28.45;;;11.00;93.00;;;;;;4956391;28;20055;-76
2021/10/18 01:13:27;;;;;;;43.28;29.17;;;10.90;93.00;;;;;;4939777;29;20050;-75
2021/10/18 01:20:38;;;;;;;42.95;29.33;;;10.90;93.10;;;;;;4956185;28;20035;-75
2021/10/18 01:23:09;;;;;;;48.17;29.70;;;10.90;93.00;;;;;;4938943;29;20426;-75
2021/10/18 01:25:38;;;;;;;48.17;31.25;;;10.90;93.00;;;;;;4923748;29;20056;-75
2021/10/18 01:28:07;;;;;;;45.70;30.77;;;10.90;93.00;;;;;;4956592;29;20047;-74
2021/10/18 01:30:34;;;;;;;48.70;32.08;;;10.90;93.00;;;;;;4939291;29;20491;-75
2021/10/18 01:33:02;;;;;;;44.60;30.65;;;10.90;93.00;;;;;;4955992;29;20062;-76
2021/10/18 01:35:30;;;;;;;50.80;33.08;;;10.90;93.10;;;;;;4955471;29;20058;-76
2021/10/18 01:37:58;;;;;;;49.00;32.20;;;10.80;93.10;;;;;;4955553;29;20058;-76
2021/10/18 01:40:27;;;;;;;49.05;31.90;;;10.80;93.20;;;;;;4938624;29;20055;-75
2021/10/18 01:42:55;;;;;;;45.30;31.90;;;10.80;93.20;;;;;;4955741;29;20050;-75
2021/10/18 01:45:24;;;;;;;50.58;32.15;;;10.80;93.30;;;;;;4955692;29;20047;-75
2021/10/18 01:47:52;;;;;;;52.33;32.67;;;10.80;93.40;;;;;;4970160;28;20055;-75
2021/10/18 01:50:26;;;;;;;46.40;31.13;;;10.80;93.30;;;;;;4938198;29;20051;-75
2021/10/18 01:52:55;;;;;;;47.53;32.13;;;10.80;93.30;;;;;;4955758;29;20062;-75
2021/10/18 01:55:23;;;;;;;46.15;30.88;;;10.80;93.40;;;;;;4937934;29;20055;-75
2021/10/18 01:57:51;;;;;;;50.08;31.60;;;10.80;93.40;;;;;;4970076;28;20051;-75
2021/10/18 02:00:19;;;;;;;49.85;31.17;;;10.70;93.40;;;;;;4970262;28;20046;-75
2021/10/18 02:02:47;;;;;;;46.63;31.15;;;10.80;93.40;;;;;;4955282;29;20492;-75
2021/10/18 02:05:15;;;;;;;48.03;31.38;;;10.80;93.40;;;;;;4955917;29;20400;-76
2021/10/18 02:07:43;;;;;;;47.00;30.83;;;10.80;93.40;;;;;;4954910;29;20051;-75
2021/10/18 02:10:12;;;;;;;44.58;31.52;;;10.80;93.40;;;;;;4955766;29;20058;-75
2021/10/18 02:12:41;;;;;;;44.90;30.77;;;10.80;93.40;;;;;;4955723;29;20047;-75
2021/10/18 02:15:10;;;;;;;47.03;31.45;;;10.80;93.30;;;;;;4972642;28;20051;-75
2021/10/18 02:17:37;;;;;;;45.80;31.67;;;10.80;93.30;;;;;;4955671;29;20048;-76
2021/10/18 02:20:07;;;;;;;46.53;31.23;;;10.80;93.40;;;;;;4955468;29;20062;-75
2021/10/18 02:22:35;;;;;;;47.88;32.03;;;10.80;93.40;;;;;;4955742;29;20047;-76
2021/10/18 02:25:05;;;;;;;46.92;31.27;;;10.80;93.30;;;;;;4955354;29;20050;-75
2021/10/18 02:27:33;;;;;;;48.72;32.95;;;10.90;93.30;;;;;;4955075;29;20074;-75
2021/10/18 02:30:03;;;;;;;50.50;32.08;;;10.90;93.20;;;;;;4955564;29;20054;-75
2021/10/18 02:32:31;;;;;;;48.17;31.85;;;11.00;93.20;;;;;;4955485;29;20070;-75
2021/10/18 02:35:00;;;;;;;45.20;32.10;;;11.00;93.20;;;;;;4952959;29;20058;-76
2021/10/18 02:37:27;;;;;;;52.83;33.03;;;11.00;93.10;;;;;;4954955;29;20043;-76
2021/10/18 02:39:55;;;;;;;47.75;32.75;;;11.00;93.00;;;;;;4954988;29;20066;-75
2021/10/18 02:42:22;;;;;;;48.22;32.40;;;11.10;93.00;;;;;;4955408;29;20046;-75
2021/10/18 02:44:50;;;;;;;52.33;33.33;;;11.10;93.00;;;;;;4954989;29;20047;-75
2021/10/18 02:47:17;;;;;;;50.95;33.28;;;11.10;92.90;;;;;;4937683;29;20376;-77
2021/10/18 02:49:45;;;;;;;50.90;34.63;;;11.20;92.90;;;;;;4969479;28;20543;-76
2021/10/18 02:52:12;;;;;;;51.45;34.08;;;11.20;92.80;;;;;;4954661;29;20404;-75
2021/10/18 02:54:40;;;;;;;50.67;35.65;;;11.20;92.70;;;;;;4954632;29;20048;-75
2021/10/18 02:57:08;;;;;;;54.10;34.33;;;11.20;92.70;;;;;;4954513;29;20070;-75
2021/10/18 02:59:37;;;;;;;56.75;36.20;;;11.20;92.60;;;;;;4954683;29;20389;-75
2021/10/18 03:02:05;;;;;;;63.03;38.15;;;11.30;92.50;;;;;;4954884;29;20063;-75
2021/10/18 03:04:33;;;;;;;64.75;38.67;;;11.20;92.50;;;;;;4955272;29;20043;-75
2021/10/18 03:07:00;;;;;;;68.53;40.75;;;11.30;92.50;;;;;;4954488;29;20047;-75
2021/10/18 03:09:28;;;;;;;74.30;41.80;;;11.30;92.60;;;;;;4938129;29;20059;-75
2021/10/18 03:11:56;;;;;;;77.03;42.30;;;11.20;92.60;;;;;;4954404;29;20047;-76
2021/10/18 03:14:23;;;;;;;78.55;44.78;;;11.20;92.60;;;;;;4953402;29;20051;-75
2021/10/18 03:16:51;;;;;;;81.72;44.55;;;11.20;92.60;;;;;;4954992;29;20043;-75
2021/10/18 03:19:18;;;;;;;84.32;44.30;;;11.20;92.60;;;;;;4937296;29;20055;-75
2021/10/18 03:21:46;;;;;;;80.30;44.08;;;11.20;92.70;;;;;;4954551;29;20409;-75
2021/10/18 03:24:13;;;;;;;82.70;44.55;;;11.20;92.70;;;;;;4936885;29;20056;-76
2021/10/18 03:26:42;;;;;;;83.60;43.97;;;11.20;92.80;;;;;;4937453;29;20377;-75
2021/10/18 03:29:09;;;;;;;84.63;45.65;;;11.20;92.80;;;;;;4937203;29;20047;-75
2021/10/18 03:31:37;;;;;;;82.72;44.88;;;11.10;92.80;;;;;;4953427;29;20357;-75
2021/10/18 03:34:05;;;;;;;84.00;44.42;;;11.20;92.90;;;;;;4954005;29;20063;-75
2021/10/18 03:36:33;;;;;;;76.53;43.92;;;11.10;92.90;;;;;;4954234;29;20039;-75
2021/10/18 03:39:00;;;;;;;87.60;46.33;;;11.10;92.90;;;;;;4937509;29;20058;-75
2021/10/18 03:41:28;;;;;;;83.57;44.65;;;11.10;92.90;;;;;;4954476;29;20051;-75
2021/10/18 03:43:56;;;;;;;86.70;44.83;;;11.10;93.00;;;;;;4954185;29;20044;-75
2021/10/18 03:46:23;;;;;;;91.80;47.00;;;11.10;93.00;;;;;;4940689;29;20054;-75
2021/10/18 03:48:51;;;;;;;85.75;44.38;;;11.10;93.00;;;;;;4957246;29;20063;-75
2021/10/18 03:51:18;;;;;;;90.22;46.38;;;11.10;93.00;;;;;;4940240;29;20054;-75
2021/10/18 03:53:46;;;;;;;90.10;45.35;;;11.10;93.00;;;;;;4956867;29;20400;-75
2021/10/18 03:56:13;;;;;;;89.60;46.10;;;11.10;93.10;;;;;;4957968;29;20055;-76
2021/10/18 04:03:16;;;;;;;70.93;39.75;;;11.10;93.20;;;;;;4957478;28;20040;-75
2021/10/18 04:05:43;;;;;;;80.22;41.92;;;11.10;93.10;;;;;;4958028;29;20051;-75
2021/10/18 04:08:11;;;;;;;70.40;40.33;;;11.10;93.10;;;;;;4957085;29;20445;-75
2021/10/18 04:10:39;;;;;;;67.10;39.53;;;11.10;93.10;;;;;;4957590;29;20405;-75
2021/10/18 04:13:06;;;;;;;62.72;37.25;;;11.20;93.10;;;;;;4961418;29;20047;-75
2021/10/18 04:15:34;;;;;;;54.63;35.42;;;11.10;93.10;;;;;;4958429;29;20055;-75
2021/10/18 04:18:02;;;;;;;62.00;36.70;;;11.20;93.10;;;;;;4957876;29;20047;-75
2021/10/18 04:20:34;;;;;;;59.00;35.03;;;11.10;93.00;;;;;;4957812;29;20047;-75
2021/10/18 04:23:02;;;;;;;57.20;34.53;;;11.10;92.90;;;;;;4956921;29;20055;-75
2021/10/18 04:25:30;;;;;;;56.88;32.95;;;11.10;92.90;;;;;;4957520;29;20485;-75
2021/10/18 04:27:57;;;;;;;52.03;33.45;;;11.10;92.90;;;;;;4958239;29;20044;-75
2021/10/18 04:30:24;;;;;;;43.75;25.27;;;11.10;92.80;;;;;;4956901;29;20047;-75
2021/10/18 04:32:52;;;;;;;45.03;29.13;;;11.10;92.70;;;;;;4939887;29;20400;-75
2021/10/18 04:35:20;;;;;;;45.03;29.58;;;11.10;92.30;;;;;;4939570;29;20047;-75
2021/10/18 04:37:47;;;;;;;40.55;27.10;;;11.10;92.30;;;;;;4940432;29;20055;-75
2021/10/18 04:40:15;;;;;;;39.45;27.35;;;11.00;92.20;;;;;;4956739;29;20043;-76
2021/10/18 04:42:43;;;;;;;41.33;27.48;;;11.00;92.10;;;;;;4956029;29;20055;-75
2021/10/18 04:45:16;;;;;;;35.40;26.35;;;11.00;92.00;;;;;;4957114;29;20055;-75
2021/10/18 04:47:46;;;;;;;41.22;24.92;;;11.00;91.90;;;;;;4956537;29;20048;-76
2021/10/18 04:50:14;;;;;;;35.63;25.33;;;11.00;91.90;;;;;;4955642;29;20048;-76
2021/10/18 04:52:42;;;;;;;39.15;25.02;;;10.90;91.90;;;;;;4939503;29;20055;-75
2021/10/18 04:55:10;;;;;;;37.78;24.63;;;10.90;91.90;;;;;;4956628;29;20400;-76
2021/10/18 04:57:52;;;;;;;35.05;24.52;;;10.90;91.90;;;;;;4939631;29;20067;-76
2021/10/18 05:00:21;;;;;;;34.92;22.98;;;10.90;91.80;;;;;;4956388;29;20062;-75
2021/10/18 05:02:48;;;;;;;33.72;22.80;;;10.80;91.70;;;;;;4956422;29;20051;-75
2021/10/18 05:05:17;;;;;;;31.58;22.15;;;10.90;91.70;;;;;;4956360;29;20543;-75
2021/10/18 05:07:44;;;;;;;30.77;21.50;;;10.90;91.60;;;;;;4939978;29;20051;-75
2021/10/18 05:10:13;;;;;;;34.25;21.67;;;10.90;91.50;;;;;;4955797;29;20504;-76
2021/10/18 05:12:41;;;;;;;32.95;22.15;;;10.90;91.40;;;;;;4937019;29;20378;-76
2021/10/18 05:15:09;;;;;;;30.40;20.17;;;10.90;91.30;;;;;;4937308;29;20051;-76
2021/10/18 05:17:36;;;;;;;28.63;20.50;;;10.90;91.20;;;;;;4937533;29;20052;-76
2021/10/18 05:20:04;;;;;;;27.60;19.83;;;11.00;91.20;;;;;;4937220;29;20044;-76
2021/10/18 05:22:32;;;;;;;29.52;21.23;;;10.90;91.20;;;;;;4937009;29;20048;-76
2021/10/18 05:25:00;;;;;;;31.48;21.60;;;11.00;91.20;;;;;;4920337;29;20051;-76
2021/10/18 05:27:27;;;;;;;28.83;21.83;;;11.00;91.20;;;;;;4937198;29;20052;-76
2021/10/18 05:29:55;;;;;;;30.95;21.40;;;11.00;91.10;;;;;;4937247;29;20052;-76
2021/10/18 05:32:22;;;;;;;32.25;21.98;;;11.00;91.10;;;;;;4936452;29;20055;-76
2021/10/18 05:34:50;;;;;;;30.88;21.00;;;11.00;91.20;;;;;;4936626;29;20520;-76
2021/10/18 05:37:17;;;;;;;32.15;22.20;;;11.00;91.20;;;;;;4936746;29;20051;-76
2021/10/18 05:39:45;;;;;;;31.40;22.52;;;11.10;91.10;;;;;;4937209;29;20054;-76
2021/10/18 05:42:12;;;;;;;34.50;22.67;;;11.10;91.20;;;;;;4935354;29;20052;-76
2021/10/18 05:44:40;;;;;;;30.88;23.27;;;11.10;91.10;;;;;;4937145;29;20051;-76
2021/10/18 05:47:08;;;;;;;33.15;22.98;;;11.10;91.20;;;;;;4936106;29;20405;-76
2021/10/18 05:49:36;;;;;;;29.58;20.45;;;11.10;91.10;;;;;;4935224;29;20052;-76
2021/10/18 05:52:04;;;;;;;32.28;21.55;;;11.10;91.20;;;;;;4937080;29;20054;-76
2021/10/18 05:54:32;;;;;;;34.35;22.65;;;11.10;91.20;;;;;;4936417;29;20063;-76
2021/10/18 05:57:18;;;;;;;30.75;21.73;;;11.10;91.20;;;;;;4936672;29;20142;-76
2021/10/18 05:59:46;;;;;;;30.60;20.73;;;11.10;91.20;;;;;;4934729;29;20480;-76
2021/10/18 06:02:13;;;;;;;28.98;22.05;;;11.10;91.20;;;;;;4936622;29;20059;-77
2021/10/18 06:04:45;;;;;;;32.25;22.95;;;11.10;91.20;;;;;;4919233;29;20052;-77
2021/10/18 06:07:12;;;;;;;31.25;22.02;;;11.20;91.20;;;;;;4935491;29;20512;-77
2021/10/18 06:09:40;;;;;;;29.70;21.75;;;11.20;91.20;;;;;;4903292;29;20063;-77
2021/10/18 06:12:07;;;;;;;36.15;23.15;;;11.20;91.20;;;;;;4954285;29;20051;-77
2021/10/18 06:14:35;;;;;;;32.22;23.02;;;11.30;91.20;;;;;;4938743;29;20465;-77
2021/10/18 06:17:03;;;;;;;31.80;22.70;;;11.20;91.20;;;;;;4955475;29;20058;-77
2021/10/18 06:19:31;;;;;;;34.38;23.15;;;11.30;91.10;;;;;;4938001;29;20050;-77
2021/10/18 06:21:59;;;;;;;36.88;23.30;;;11.30;91.20;;;;;;4954590;29;20063;-76
2021/10/18 06:24:29;;;;;;;35.22;22.80;;;11.30;91.10;;;;;;4922163;29;20158;-77
2021/10/18 06:26:56;;;;;;;37.45;23.95;;;11.30;91.20;;;;;;4955407;29;20059;-77
2021/10/18 06:29:26;;;;;;;34.85;23.85;;;11.30;91.10;;;;;;4938366;29;20054;-78
2021/10/18 06:31:53;;;;;;;33.65;23.52;;;11.30;91.10;;;;;;4954481;29;20064;-77
2021/10/18 06:34:21;;;;;;;36.80;23.80;;;11.30;91.20;;;;;;4938207;29;20365;-77
2021/10/18 06:36:48;;;;;;;37.80;23.73;;;11.30;91.20;;;;;;4969500;28;20508;-77
2021/10/18 06:39:16;;;;;;;34.15;24.77;;;11.30;91.20;;;;;;4937705;29;20058;-80
2021/10/18 06:41:44;;;;;;;35.28;24.33;;;11.30;91.20;;;;;;4938197;29;20047;-74
2021/10/18 06:44:11;;;;;;;35.97;25.25;;;11.30;91.20;;;;;;4954958;29;20043;-77
2021/10/18 06:46:39;;;;;;;37.72;25.27;;;11.30;91.30;;;;;;4938088;29;20393;-76
2021/10/18 06:49:06;;;;;;;37.25;25.85;;;11.30;91.30;;;;;;4954769;29;20043;-76
2021/10/18 06:51:38;;;;;;;41.90;27.17;;;11.30;91.30;;;;;;4937678;29;20480;-74
2021/10/18 06:54:05;;;;;;;40.72;26.45;;;11.30;91.40;;;;;;4955247;29;20050;-74
2021/10/18 06:56:33;;;;;;;44.63;26.98;;;11.30;91.40;;;;;;4936655;29;20066;-76
2021/10/18 06:59:01;;;;;;;41.75;27.85;;;11.30;91.50;;;;;;4954592;29;20078;-74
2021/10/18 07:01:28;;;;;;;44.20;27.40;;;11.30;91.60;;;;;;4955324;29;20043;-77
2021/10/18 07:03:56;;;;;;;46.72;28.35;;;11.30;91.60;;;;;;4954573;29;20056;-77
2021/10/18 07:06:24;;;;;;;47.97;29.00;;;11.30;91.70;;;;;;4954900;29;20051;-76
2021/10/18 07:08:51;;;;;;;51.40;29.45;;;11.30;91.90;;;;;;4954149;29;20369;-77
2021/10/18 07:11:19;;;;;;;51.17;29.67;;;11.30;91.90;;;;;;4954959;29;20051;-76
2021/10/18 07:13:47;;;;;;;49.95;29.77;;;11.40;91.90;;;;;;4954763;29;20055;-75
2021/10/18 07:16:14;;;;;;;52.28;30.75;;;11.40;92.00;;;;;;4952922;28;20062;-75
2021/10/18 07:18:43;;;;;;;49.08;29.45;;;11.40;92.00;;;;;;4937672;29;20058;-75
2021/10/18 07:21:12;;;;;;;50.15;29.27;;;11.50;92.10;;;;;;4940154;29;20048;-76
2021/10/18 07:23:39;;;;;;;50.15;29.88;;;11.50;92.10;;;;;;4940964;29;20536;-76
2021/10/18 07:26:08;;;;;;;48.70;29.42;;;11.60;92.10;;;;;;4958845;29;20050;-76
2021/10/18 07:28:36;;;;;;;53.58;30.95;;;11.70;92.10;;;;;;4957744;29;20055;-76
2021/10/18 07:31:04;;;;;;;48.80;30.35;;;11.70;92.10;;;;;;4957971;29;20058;-77
2021/10/18 07:33:32;;;;;;;51.38;31.33;;;11.70;92.20;;;;;;4940960;29;20047;-76
2021/10/18 07:36:07;;;;;;;50.45;29.45;;;11.80;92.20;;;;;;4957755;29;20047;-77
2021/10/18 07:38:39;;;;;;;50.70;29.83;;;11.80;92.10;;;;;;4958485;29;20043;-77
2021/10/18 07:41:07;;;;;;;46.45;29.38;;;11.80;92.10;;;;;;4958192;29;20039;-77
2021/10/18 07:43:35;;;;;;;49.30;29.67;;;11.80;92.10;;;;;;4958132;29;20047;-77
2021/10/18 07:46:02;;;;;;;51.47;29.30;;;11.90;92.10;;;;;;4940574;29;20040;-77
2021/10/18 07:48:30;;;;;;;43.97;28.60;;;11.90;92.10;;;;;;4958435;29;20488;-77
2021/10/18 07:50:58;;;;;;;42.55;28.00;;;12.00;92.00;;;;;;4957902;29;20039;-77
2021/10/18 07:53:25;;;;;;;48.72;28.40;;;12.00;92.00;;;;;;4957813;29;20051;-77
2021/10/18 07:55:53;;;;;;;46.60;27.92;;;12.00;92.00;;;;;;4958015;29;20050;-77
2021/10/18 07:58:21;;;;;;;52.03;29.50;;;12.10;92.00;;;;;;4940653;29;20054;-77
2021/10/18 08:00:50;;;;;;;45.40;28.08;;;12.10;92.00;;;;;;4940039;29;20066;-77
2021/10/18 08:03:17;;;;;;;48.90;29.35;;;12.20;92.00;;;;;;4957111;29;20063;-77
2021/10/18 08:05:45;;;;;;;43.30;27.73;;;12.20;91.90;;;;;;4958148;29;20047;-76
2021/10/18 08:08:20;;;;;;;40.10;27.15;;;12.30;91.90;;;;;;4957966;29;20047;-77
2021/10/18 08:10:51;;;;;;;47.70;28.92;;;12.30;91.80;;;;;;4944352;29;20408;-77
2021/10/18 08:13:19;;;;;;;47.70;28.70;;;12.30;91.80;;;;;;4957877;29;20070;-76
2021/10/18 08:15:46;;;;;;;43.45;28.33;;;12.30;91.80;;;;;;4957797;29;20526;-76
2021/10/18 08:18:14;;;;;;;42.80;28.38;;;12.40;91.70;;;;;;4957957;29;20051;-77
2021/10/18 08:20:43;;;;;;;46.45;27.98;;;12.50;91.70;;;;;;4957971;29;20051;-76
2021/10/18 08:23:11;;;;;;;42.67;28.00;;;12.50;91.60;;;;;;4940003;29;20535;-77
2021/10/18 08:25:40;;;;;;;41.20;27.33;;;12.60;91.60;;;;;;4940612;29;20056;-77
2021/10/18 08:28:08;;;;;;;43.45;27.30;;;12.60;91.50;;;;;;4956954;29;20054;-77
2021/10/18 08:30:36;;;;;;;43.35;28.10;;;12.60;91.50;;;;;;4955522;28;20497;-78
2021/10/18 08:33:04;;;;;;;40.90;27.55;;;12.70;91.50;;;;;;4956531;29;20051;-77
2021/10/18 08:35:33;;;;;;;39.67;27.83;;;12.70;91.40;;;;;;4956434;29;20054;-77
2021/10/18 08:41:33;;;;;;;41.67;26.30;;;12.80;91.30;;;;;;4957424;29;20406;-76
2021/10/18 08:46:08;;;;;;;39.53;27.27;;;12.80;91.20;;;;;;4956326;29;20420;-76
2021/10/18 08:48:55;;;;;;;40.58;26.55;;;12.80;91.10;;;;;;4942258;29;20043;-77
2021/10/18 08:51:24;;;;;;;37.50;25.60;;;12.90;91.10;;;;;;4957368;29;20052;-76
2021/10/18 08:53:52;;;;;;;37.63;26.20;;;12.90;91.10;;;;;;4956659;29;20054;-76
2021/10/18 08:56:20;;;;;;;40.58;25.50;;;12.90;91.00;;;;;;4957399;29;20071;-76
2021/10/18 08:58:48;;;;;;;39.15;26.13;;;12.90;91.00;;;;;;4956949;29;20058;-76
2021/10/18 09:01:16;;;;;;;39.33;25.80;;;13.00;91.00;;;;;;4956481;29;20054;-75
2021/10/18 09:03:44;;;;;;;34.97;24.45;;;13.00;91.00;;;;;;4956390;29;20521;-76
2021/10/18 09:06:12;;;;;;;37.38;24.98;;;13.10;90.80;;;;;;4956820;29;20047;-76
2021/10/18 09:08:43;;;;;;;33.97;24.77;;;13.20;90.80;;;;;;4956274;29;20054;-77
2021/10/18 09:11:18;;;;;;;32.78;24.17;;;13.20;90.70;;;;;;4942186;29;20051;-77
2021/10/18 09:14:05;;;;;;;34.53;24.27;;;13.20;90.60;;;;;;4957202;29;20058;-76
2021/10/18 09:16:38;;;;;;;34.97;23.42;;;13.20;90.60;;;;;;4956394;29;20047;-76
2021/10/18 09:19:18;;;;;;;33.33;23.75;;;13.30;90.60;;;;;;4956000;29;20047;-77
2021/10/18 09:21:50;;;;;;;31.70;23.02;;;13.20;90.50;;;;;;4939629;29;20044;-76
2021/10/18 09:24:30;;;;;;;35.38;23.83;;;13.20;90.50;;;;;;4956550;29;20397;-79
2021/10/18 09:27:02;;;;;;;29.70;22.25;;;13.30;90.50;;;;;;4956531;29;20439;-80
2021/10/18 09:29:46;;;;;;;31.85;23.17;;;13.30;90.40;;;;;;4955417;29;20063;-76
2021/10/18 09:32:26;;;;;;;32.83;22.80;;;13.30;90.40;;;;;;4956432;29;20391;-76
2021/10/18 09:35:19;;;;;;;35.15;23.55;;;13.30;90.30;;;;;;4956112;29;20055;-76
2021/10/18 09:37:46;;;;;;;32.50;22.95;;;13.30;90.30;;;;;;4970857;28;20051;-76
2021/10/18 09:40:32;;;;;;;33.08;22.88;;;13.30;90.30;;;;;;4955684;29;20043;-75
2021/10/18 09:43:07;;;;;;;31.85;22.77;;;13.30;90.30;;;;;;4954546;28;20055;-75
2021/10/18 09:45:38;;;;;;;39.25;22.73;;;13.30;90.30;;;;;;4956386;29;20055;-75
2021/10/18 10:52:12;;;;;;;38.20;25.50;;;13.50;90.40;;;;;;4953413;29;20035;-76
2021/10/18 10:54:46;;;;;;;38.00;26.40;;;13.40;90.40;;;;;;4956210;28;20051;-77
2021/10/18 10:57:31;;;;;;;44.15;27.63;;;13.50;90.50;;;;;;4959201;29;20047;-76
2021/10/18 10:59:58;;;;;;;38.10;27.20;;;13.50;90.70;;;;;;4959473;29;20044;-77
2021/10/18 11:02:28;;;;;;;38.72;27.23;;;13.50;90.70;;;;;;4958589;29;20047;-76
2021/10/18 11:04:56;;;;;;;38.13;26.85;;;13.40;90.80;;;;;;4959414;29;20055;-76
2021/10/18 11:07:33;;;;;;;38.85;27.58;;;13.40;90.90;;;;;;4957432;29;20051;-77
2021/10/18 11:10:03;;;;;;;38.38;26.42;;;13.40;91.00;;;;;;4958369;29;20461;-73
2021/10/18 11:12:38;;;;;;;39.05;26.98;;;13.40;91.10;;;;;;4957128;29;20062;-78
2021/10/18 11:15:06;;;;;;;39.83;27.35;;;13.50;91.20;;;;;;4958911;29;20047;-73
2021/10/18 11:17:38;;;;;;;38.85;26.52;;;13.50;91.20;;;;;;4957646;28;20074;-73
2021/10/18 11:20:11;;;;;;;39.70;27.08;;;13.50;91.30;;;;;;4959013;29;20051;-73
2021/10/18 11:22:42;;;;;;;43.17;27.38;;;13.50;91.40;;;;;;4956593;29;20500;-73
2021/10/18 11:25:22;;;;;;;46.17;28.95;;;13.50;91.50;;;;;;4972965;28;20489;-73
2021/10/18 11:27:56;;;;;;;40.63;27.63;;;13.50;91.50;;;;;;4958580;29;20051;-73
2021/10/18 11:30:26;;;;;;;;;;;13.50;91.60;;;;;;4959125;29;20059;-73
2021/10/18 11:33:01;;;;;;;47.15;27.60;;;13.50;91.70;;;;;;4958455;28;20423;-73
2021/10/18 11:35:32;;;;;;;46.28;28.65;;;13.50;91.70;;;;;;4958790;29;20050;-72
2021/10/18 11:38:09;;;;;;;49.30;29.55;;;13.60;91.70;;;;;;4957468;28;20055;-73
2021/10/18 11:40:44;;;;;;;51.70;29.83;;;13.50;91.80;;;;;;4958469;29;20051;-73
2021/10/18 11:43:19;;;;;;;45.35;29.05;;;13.60;91.90;;;;;;4958925;28;20055;-71
2021/10/18 11:45:52;;;;;;;51.63;30.25;;;13.60;92.00;;;;;;4958383;29;20066;-73
2021/10/18 11:48:27;;;;;;;51.97;29.65;;;13.60;92.10;;;;;;4957369;28;20066;-72
2021/10/18 11:51:02;;;;;;;51.15;28.95;;;13.70;92.30;;;;;;4957227;29;20058;-72
2021/10/18 11:53:39;;;;;;;48.92;29.92;;;13.70;92.40;;;;;;4958197;29;20039;-74
2021/10/18 11:56:09;;;;;;;51.35;30.20;;;13.70;92.40;;;;;;4958141;29;20433;-72
2021/10/18 11:58:38;;;;;;;42.10;26.83;;;13.80;92.50;;;;;;4959212;29;20118;-75
2021/10/18 12:01:10;;;;;;;42.72;26.40;;;13.80;92.50;;;;;;4957651;29;20058;-75
2021/10/18 12:03:38;;;;;;;40.03;24.67;;;13.80;92.50;;;;;;4957013;29;20051;-74
2021/10/18 12:06:09;;;;;;;36.28;23.75;;;13.90;92.60;;;;;;4957475;28;20039;-75
2021/10/18 12:08:39;;;;;;;36.42;22.83;;;13.90;92.70;;;;;;4944150;29;20066;-74
2021/10/18 12:11:09;;;;;;;31.95;20.48;;;13.90;92.80;;;;;;4956679;29;20059;-75
2021/10/18 12:13:39;;;;;;;26.33;19.38;;;14.00;92.80;;;;;;4957783;29;20062;-75
2021/10/18 12:16:19;;;;;;;27.33;17.67;;;14.10;92.80;;;;;;4956716;29;20055;-75
2021/10/18 12:18:47;;;;;;;24.50;17.05;;;14.10;92.90;;;;;;4957144;28;20501;-75
2021/10/18 12:21:30;;;;;;;28.77;17.80;;;14.20;92.90;;;;;;4957052;29;20048;-74
2021/10/18 12:24:06;;;;;;;26.30;18.65;;;14.20;92.70;;;;;;4956383;29;20055;-74
2021/10/18 12:26:40;;;;;;;26.45;18.05;;;14.30;92.70;;;;;;4956685;29;20055;-75
2021/10/18 12:29:08;;;;;;;26.10;16.85;;;14.30;92.60;;;;;;4957692;29;20098;-75
2021/10/18 12:31:41;;;;;;;25.58;17.48;;;14.30;92.60;;;;;;4957372;29;20496;-75
2021/10/18 12:34:13;;;;;;;23.63;16.55;;;14.30;92.60;;;;;;4956364;29;20468;-75
2021/10/18 12:37:05;;;;;;;20.67;15.60;;;14.40;92.60;;;;;;4972390;28;20047;-75
2021/10/18 12:39:47;;;;;;;23.73;16.42;;;14.50;92.50;;;;;;4954933;29;20052;-75
2021/10/18 12:46:49;;;;;;;22.95;16.58;;;14.60;92.30;;;;;;4957321;29;20043;-75
2021/10/18 12:49:28;;;;;;;30.05;18.00;;;14.60;92.10;;;;;;4956962;29;20047;-75
2021/10/18 12:51:56;;;;;;;28.08;16.85;;;14.70;92.20;;;;;;4954739;29;20519;-75
2021/10/18 12:54:36;;;;;;;25.50;16.25;;;14.70;92.30;;;;;;4955873;29;20058;-75
2021/10/18 13:01:35;;;;;;;18.80;15.20;;;14.80;92.40;;;;;;4955225;29;20043;-75
2021/10/18 13:04:18;;;;;;;19.95;14.40;;;14.90;92.30;;;;;;4955474;29;20523;-75
2021/10/18 13:06:47;;;;;;;22.52;15.25;;;15.10;92.30;;;;;;4956516;28;20055;-75
2021/10/18 13:09:15;;;;;;;21.00;14.93;;;15.20;92.20;;;;;;4957223;29;20050;-75
2021/10/18 13:11:43;;;;;;;18.75;13.43;;;15.20;92.20;;;;;;4954345;29;20062;-75
2021/10/18 13:14:12;;;;;;;15.50;12.25;;;15.30;92.00;;;;;;4955089;29;20402;-75
2021/10/18 13:16:40;;;;;;;16.55;12.95;;;15.30;92.00;;;;;;4955407;28;20149;-75
2021/10/18 13:19:08;;;;;;;19.60;12.93;;;15.30;91.80;;;;;;4954244;28;20055;-75
2021/10/18 13:21:35;;;;;;;17.48;12.95;;;15.50;91.80;;;;;;4955263;29;20047;-75
2021/10/18 13:24:04;;;;;;;14.52;12.00;;;15.50;91.70;;;;;;4955725;29;20051;-75
2021/10/18 13:26:31;;;;;;;15.60;11.75;;;15.50;91.70;;;;;;4955630;29;20050;-75
2021/10/18 13:28:59;;;;;;;13.10;11.00;;;15.60;91.60;;;;;;4955763;29;20416;-75
2021/10/18 13:31:27;;;;;;;13.18;10.70;;;15.60;91.50;;;;;;4954154;29;20058;-76
2021/10/18 13:33:55;;;;;;;14.50;10.25;;;15.60;91.50;;;;;;4971097;28;20051;-75
2021/10/18 13:36:24;;;;;;;14.55;11.07;;;15.60;91.50;;;;;;4954490;29;20047;-75
2021/10/18 13:38:52;;;;;;;15.20;10.45;;;15.60;91.60;;;;;;4954396;29;20053;-75
2021/10/18 13:41:20;;;;;;;11.50;9.38;;;15.70;91.60;;;;;;4955603;29;20046;-75
2021/10/18 13:43:48;;;;;;;9.40;7.88;;;15.70;91.60;;;;;;4955827;28;20050;-75
2021/10/18 13:46:15;;;;;;;9.73;8.32;;;15.70;91.50;;;;;;4955775;29;20051;-76
2021/10/18 13:48:43;;;;;;;10.30;8.65;;;15.70;91.40;;;;;;4953969;29;20054;-75
2021/10/18 13:51:11;;;;;;;8.98;7.43;;;15.70;91.50;;;;;;4953973;29;20063;-75
2021/10/18 13:53:39;;;;;;;10.07;8.20;;;15.70;91.50;;;;;;4955745;29;20395;-75
2021/10/18 13:56:06;;;;;;;9.85;7.80;;;15.60;91.60;;;;;;4956094;29;20070;-75
2021/10/18 13:58:34;;;;;;;8.60;7.13;;;15.60;91.70;;;;;;4955597;29;20043;-75
2021/10/18 14:01:02;;;;;;;8.43;6.72;;;15.60;91.70;;;;;;4955571;29;20043;-75
2021/10/18 14:03:30;;;;;;;12.02;6.88;;;15.60;91.80;;;;;;4956107;29;20047;-75
2021/10/18 14:05:58;;;;;;;6.53;5.43;;;15.60;91.80;;;;;;4958277;29;20077;-75
2021/10/18 14:08:27;;;;;;;7.20;5.72;;;15.70;91.80;;;;;;4955271;29;20050;-75
2021/10/18 14:10:55;;;;;;;5.35;4.82;;;15.70;91.80;;;;;;4954794;29;20058;-75
2021/10/18 14:13:23;;;;;;;5.00;4.50;;;15.70;91.80;;;;;;4954100;29;20530;-75
2021/10/18 14:15:51;;;;;;;5.00;4.45;;;15.80;91.60;;;;;;4954946;29;20054;-80